sensor_id;sensor_type;location;lat;lon;timestamp;temperature;humidity
11744;DHT22;5929;51.906;7.674;2022-12-05T00:01:26;2.80;99.90
11744;DHT22;5929;51.906;7.674;2022-12-05T00:03:56;2.80;99.90
11744;DHT22;5929;51.906;7.674;2022-12-05T00:06:27;2.80;99.90
11744;DHT22;5929;51.906;7.674;2022-12-05T00:08:55;2.80;99.90
11744;DHT22;5929;51.906;7.674;2022-12-05T00:11:23;2.80;99.90
11744;DHT22;5929;51.906;7.674;2022-12-05T00:13:51;2.80;99.90
11744;DHT22;5929;51.906;7.674;2022-12-05T00:16:20;2.80;99.90
11744;DHT22;5929;51.906;7.674;2022-12-05T00:18:48;2.80;99.90
11744;DHT22;5929;51.906;7.674;2022-12-05T00:21:18;2.80;99.90
11744;DHT22;5929;51.906;7.674;2022-12-05T00:23:46;2.80;99.90
11744;DHT22;5929;51.906;7.674;2022-12-05T00:26:13;2.80;99.90
11744;DHT22;5929;51.906;7.674;2022-12-05T00:28:40;2.80;99.90
11744;DHT22;5929;51.906;7.674;2022-12-05T00:31:10;2.80;99.90
11744;DHT22;5929;51.906;7.674;2022-12-05T00:33:39;2.90;99.90
11744;DHT22;5929;51.906;7.674;2022-12-05T00:36:08;2.90;99.90
11744;DHT22;5929;51.906;7.674;2022-12-05T00:38:37;2.80;99.90
11744;DHT22;5929;51.906;7.674;2022-12-05T00:41:08;2.90;99.90
11744;DHT22;5929;51.906;7.674;2022-12-05T00:43:35;2.90;99.90
11744;DHT22;5929;51.906;7.674;2022-12-05T00:46:03;2.90;99.90
11744;DHT22;5929;51.906;7.674;2022-12-05T00:48:30;2.90;99.90
11744;DHT22;5929;51.906;7.674;2022-12-05T00:51:01;2.90;99.90
11744;DHT22;5929;51.906;7.674;2022-12-05T00:53:28;2.90;99.90
11744;DHT22;5929;51.906;7.674;2022-12-05T00:56:00;2.90;99.90
11744;DHT22;5929;51.906;7.674;2022-12-05T00:58:27;2.90;99.90
11744;DHT22;5929;51.906;7.674;2022-12-05T01:00:54;2.90;99.90
11744;DHT22;5929;51.906;7.674;2022-12-05T01:03:23;2.90;99.90
11744;DHT22;5929;51.906;7.674;2022-12-05T01:05:50;2.90;99.90
11744;DHT22;5929;51.906;7.674;2022-12-05T01:08:19;2.90;99.90
11744;DHT22;5929;51.906;7.674;2022-12-05T01:10:52;2.90;99.90
11744;DHT22;5929;51.906;7.674;2022-12-05T01:13:20;2.90;99.90
11744;DHT22;5929;51.906;7.674;2022-12-05T01:15:47;2.90;99.90
11744;DHT22;5929;51.906;7.674;2022-12-05T01:18:15;2.90;99.90
11744;DHT22;5929;51.906;7.674;2022-12-05T01:20:42;2.90;99.90
11744;DHT22;5929;51.906;7.674;2022-12-05T01:23:09;2.90;99.90
11744;DHT22;5929;51.906;7.674;2022-12-05T01:25:38;2.90;99.90
11744;DHT22;5929;51.906;7.674;2022-12-05T01:28:05;2.90;99.90
11744;DHT22;5929;51.906;7.674;2022-12-05T01:30:36;2.80;99.90
11744;DHT22;5929;51.906;7.674;2022-12-05T01:33:03;2.90;99.90
11744;DHT22;5929;51.906;7.674;2022-12-05T01:35:37;2.80;99.90
11744;DHT22;5929;51.906;7.674;2022-12-05T01:38:05;2.80;99.90
11744;DHT22;5929;51.906;7.674;2022-12-05T01:40:32;2.80;99.90
11744;DHT22;5929;51.906;7.674;2022-12-05T01:43:00;2.90;99.90
11744;DHT22;5929;51.906;7.674;2022-12-05T01:45:32;2.90;99.90
11744;DHT22;5929;51.906;7.674;2022-12-05T01:48:03;2.90;99.90
11744;DHT22;5929;51.906;7.674;2022-12-05T01:50:32;2.90;99.90
11744;DHT22;5929;51.906;7.674;2022-12-05T01:53:00;2.90;99.90
11744;DHT22;5929;51.906;7.674;2022-12-05T01:55:27;2.90;99.90
11744;DHT22;5929;51.906;7.674;2022-12-05T01:57:56;2.90;99.90
11744;DHT22;5929;51.906;7.674;2022-12-05T02:00:23;2.90;99.90
11744;DHT22;5929;51.906;7.674;2022-12-05T02:02:56;3.00;99.90
11744;DHT22;5929;51.906;7.674;2022-12-05T02:05:27;2.90;99.90
11744;DHT22;5929;51.906;7.674;2022-12-05T02:07:57;2.90;99.90
11744;DHT22;5929;51.906;7.674;2022-12-05T02:10:24;2.90;99.90
11744;DHT22;5929;51.906;7.674;2022-12-05T02:12:51;2.90;99.90
11744;DHT22;5929;51.906;7.674;2022-12-05T02:15:30;2.90;99.90
11744;DHT22;5929;51.906;7.674;2022-12-05T02:18:17;2.90;99.90
11744;DHT22;5929;51.906;7.674;2022-12-05T02:21:01;2.90;99.90
11744;DHT22;5929;51.906;7.674;2022-12-05T02:23:47;2.90;99.90
11744;DHT22;5929;51.906;7.674;2022-12-05T02:26:47;2.90;99.90
11744;DHT22;5929;51.906;7.674;2022-12-05T02:32:20;2.90;99.90
11744;DHT22;5929;51.906;7.674;2022-12-05T02:34:56;2.90;99.90
11744;DHT22;5929;51.906;7.674;2022-12-05T02:37:27;2.90;99.90
11744;DHT22;5929;51.906;7.674;2022-12-05T02:39:59;2.90;99.90
11744;DHT22;5929;51.906;7.674;2022-12-05T02:42:32;2.90;99.90
11744;DHT22;5929;51.906;7.674;2022-12-05T02:45:04;2.90;99.90
11744;DHT22;5929;51.906;7.674;2022-12-05T02:47:37;2.90;99.90
11744;DHT22;5929;51.906;7.674;2022-12-05T02:50:07;2.90;99.90
11744;DHT22;5929;51.906;7.674;2022-12-05T02:52:34;2.90;99.90
11744;DHT22;5929;51.906;7.674;2022-12-05T02:55:03;2.90;99.90
11744;DHT22;5929;51.906;7.674;2022-12-05T02:57:32;2.90;99.90
11744;DHT22;5929;51.906;7.674;2022-12-05T02:59:59;3.00;99.90
11744;DHT22;5929;51.906;7.674;2022-12-05T03:02:28;3.00;99.90
11744;DHT22;5929;51.906;7.674;2022-12-05T03:05:00;2.90;99.90
11744;DHT22;5929;51.906;7.674;2022-12-05T03:07:32;2.90;99.90
11744;DHT22;5929;51.906;7.674;2022-12-05T03:10:02;2.90;99.90
11744;DHT22;5929;51.906;7.674;2022-12-05T03:12:34;2.90;99.90
11744;DHT22;5929;51.906;7.674;2022-12-05T03:15:05;2.90;99.90
11744;DHT22;5929;51.906;7.674;2022-12-05T03:17:35;2.90;99.90
11744;DHT22;5929;51.906;7.674;2022-12-05T03:20:08;2.90;99.90
11744;DHT22;5929;51.906;7.674;2022-12-05T03:22:42;3.00;99.90
11744;DHT22;5929;51.906;7.674;2022-12-05T03:25:14;2.90;99.90
11744;DHT22;5929;51.906;7.674;2022-12-05T03:27:46;2.90;99.90
11744;DHT22;5929;51.906;7.674;2022-12-05T03:30:17;2.90;99.90
11744;DHT22;5929;51.906;7.674;2022-12-05T03:32:49;2.80;99.90
11744;DHT22;5929;51.906;7.674;2022-12-05T03:35:22;2.90;99.90
11744;DHT22;5929;51.906;7.674;2022-12-05T03:37:52;2.90;99.90
11744;DHT22;5929;51.906;7.674;2022-12-05T03:40:28;2.90;99.90
11744;DHT22;5929;51.906;7.674;2022-12-05T03:43:01;2.90;99.90
11744;DHT22;5929;51.906;7.674;2022-12-05T03:45:35;2.90;99.90
11744;DHT22;5929;51.906;7.674;2022-12-05T03:48:08;2.90;99.90
11744;DHT22;5929;51.906;7.674;2022-12-05T03:50:40;2.90;99.90
11744;DHT22;5929;51.906;7.674;2022-12-05T03:53:14;2.80;99.90
11744;DHT22;5929;51.906;7.674;2022-12-05T03:55:48;2.90;99.90
11744;DHT22;5929;51.906;7.674;2022-12-05T03:58:19;2.90;99.90
11744;DHT22;5929;51.906;7.674;2022-12-05T04:00:51;2.90;99.90
11744;DHT22;5929;51.906;7.674;2022-12-05T04:03:22;2.90;99.90
11744;DHT22;5929;51.906;7.674;2022-12-05T04:05:55;2.90;99.90
11744;DHT22;5929;51.906;7.674;2022-12-05T04:08:27;2.90;99.90
11744;DHT22;5929;51.906;7.674;2022-12-05T04:10:58;2.90;99.90
11744;DHT22;5929;51.906;7.674;2022-12-05T04:13:29;2.90;99.90
11744;DHT22;5929;51.906;7.674;2022-12-05T04:16:01;2.90;99.90
11744;DHT22;5929;51.906;7.674;2022-12-05T04:18:53;2.90;99.90
11744;DHT22;5929;51.906;7.674;2022-12-05T04:21:26;2.80;99.90
11744;DHT22;5929;51.906;7.674;2022-12-05T04:24:03;2.90;99.90
11744;DHT22;5929;51.906;7.674;2022-12-05T04:26:56;2.90;99.90
11744;DHT22;5929;51.906;7.674;2022-12-05T04:29:27;2.90;99.90
11744;DHT22;5929;51.906;7.674;2022-12-05T04:31:59;2.90;99.90
11744;DHT22;5929;51.906;7.674;2022-12-05T04:34:30;2.90;99.90
11744;DHT22;5929;51.906;7.674;2022-12-05T04:37:03;2.90;99.90
11744;DHT22;5929;51.906;7.674;2022-12-05T04:39:35;2.80;99.90
11744;DHT22;5929;51.906;7.674;2022-12-05T04:42:05;2.80;99.90
11744;DHT22;5929;51.906;7.674;2022-12-05T04:44:35;2.90;99.90
11744;DHT22;5929;51.906;7.674;2022-12-05T04:47:05;2.90;99.90
11744;DHT22;5929;51.906;7.674;2022-12-05T04:49:34;2.80;99.90
11744;DHT22;5929;51.906;7.674;2022-12-05T04:52:07;2.80;99.90
11744;DHT22;5929;51.906;7.674;2022-12-05T04:54:37;2.90;99.90
11744;DHT22;5929;51.906;7.674;2022-12-05T04:57:09;2.90;99.90
11744;DHT22;5929;51.906;7.674;2022-12-05T04:59:37;2.80;99.90
11744;DHT22;5929;51.906;7.674;2022-12-05T05:02:07;2.80;99.90
11744;DHT22;5929;51.906;7.674;2022-12-05T05:04:40;2.80;99.90
11744;DHT22;5929;51.906;7.674;2022-12-05T05:07:11;2.90;99.90
11744;DHT22;5929;51.906;7.674;2022-12-05T05:09:39;2.90;99.90
11744;DHT22;5929;51.906;7.674;2022-12-05T05:12:07;2.80;99.90
11744;DHT22;5929;51.906;7.674;2022-12-05T05:14:34;2.90;99.90
11744;DHT22;5929;51.906;7.674;2022-12-05T05:17:00;2.90;99.90
11744;DHT22;5929;51.906;7.674;2022-12-05T05:19:28;2.90;99.90
11744;DHT22;5929;51.906;7.674;2022-12-05T05:21:55;2.90;99.90
11744;DHT22;5929;51.906;7.674;2022-12-05T05:24:23;2.90;99.90
11744;DHT22;5929;51.906;7.674;2022-12-05T05:26:51;2.80;99.90
11744;DHT22;5929;51.906;7.674;2022-12-05T05:29:18;2.80;99.90
11744;DHT22;5929;51.906;7.674;2022-12-05T05:31:45;2.80;99.90
11744;DHT22;5929;51.906;7.674;2022-12-05T05:34:12;2.70;99.90
11744;DHT22;5929;51.906;7.674;2022-12-05T05:36:41;2.80;99.90
11744;DHT22;5929;51.906;7.674;2022-12-05T05:39:12;2.80;99.90
11744;DHT22;5929;51.906;7.674;2022-12-05T05:41:41;2.80;99.90
11744;DHT22;5929;51.906;7.674;2022-12-05T05:44:08;2.80;99.90
11744;DHT22;5929;51.906;7.674;2022-12-05T05:46:35;2.80;99.90
11744;DHT22;5929;51.906;7.674;2022-12-05T05:49:02;2.80;99.90
11744;DHT22;5929;51.906;7.674;2022-12-05T05:51:29;2.80;99.90
11744;DHT22;5929;51.906;7.674;2022-12-05T05:53:57;2.90;99.90
11744;DHT22;5929;51.906;7.674;2022-12-05T05:56:24;2.90;99.90
11744;DHT22;5929;51.906;7.674;2022-12-05T05:58:56;2.80;99.90
11744;DHT22;5929;51.906;7.674;2022-12-05T06:01:23;2.90;99.90
11744;DHT22;5929;51.906;7.674;2022-12-05T06:03:52;2.80;99.90
11744;DHT22;5929;51.906;7.674;2022-12-05T06:06:22;2.90;99.90
11744;DHT22;5929;51.906;7.674;2022-12-05T06:08:49;2.90;99.90
11744;DHT22;5929;51.906;7.674;2022-12-05T06:11:17;2.90;99.90
11744;DHT22;5929;51.906;7.674;2022-12-05T06:13:45;2.90;99.90
11744;DHT22;5929;51.906;7.674;2022-12-05T06:16:15;3.00;99.90
11744;DHT22;5929;51.906;7.674;2022-12-05T06:18:42;3.00;99.90
11744;DHT22;5929;51.906;7.674;2022-12-05T06:21:09;3.00;99.90
11744;DHT22;5929;51.906;7.674;2022-12-05T06:23:37;3.00;99.90
11744;DHT22;5929;51.906;7.674;2022-12-05T06:26:05;3.00;99.90
11744;DHT22;5929;51.906;7.674;2022-12-05T06:28:35;3.00;99.90
11744;DHT22;5929;51.906;7.674;2022-12-05T06:31:06;3.00;99.90
11744;DHT22;5929;51.906;7.674;2022-12-05T06:33:35;3.00;99.90
11744;DHT22;5929;51.906;7.674;2022-12-05T06:36:06;3.00;99.90
11744;DHT22;5929;51.906;7.674;2022-12-05T06:38:34;3.00;99.90
11744;DHT22;5929;51.906;7.674;2022-12-05T06:41:04;3.00;99.90
11744;DHT22;5929;51.906;7.674;2022-12-05T06:43:41;3.00;99.90
11744;DHT22;5929;51.906;7.674;2022-12-05T06:46:12;3.00;99.90
11744;DHT22;5929;51.906;7.674;2022-12-05T06:48:41;3.00;99.90
11744;DHT22;5929;51.906;7.674;2022-12-05T06:51:09;3.00;99.90
11744;DHT22;5929;51.906;7.674;2022-12-05T06:53:36;3.00;99.90
11744;DHT22;5929;51.906;7.674;2022-12-05T06:56:04;3.00;99.90
11744;DHT22;5929;51.906;7.674;2022-12-05T06:58:32;2.90;99.90
11744;DHT22;5929;51.906;7.674;2022-12-05T07:00:59;2.90;99.90
11744;DHT22;5929;51.906;7.674;2022-12-05T07:03:47;2.90;99.90
11744;DHT22;5929;51.906;7.674;2022-12-05T07:06:15;2.90;99.90
11744;DHT22;5929;51.906;7.674;2022-12-05T07:08:42;2.90;99.90
11744;DHT22;5929;51.906;7.674;2022-12-05T07:11:09;2.90;99.90
11744;DHT22;5929;51.906;7.674;2022-12-05T07:13:36;2.90;99.90
11744;DHT22;5929;51.906;7.674;2022-12-05T07:16:03;2.90;99.90
11744;DHT22;5929;51.906;7.674;2022-12-05T07:18:31;3.00;99.90
11744;DHT22;5929;51.906;7.674;2022-12-05T07:21:01;3.00;99.90
11744;DHT22;5929;51.906;7.674;2022-12-05T07:23:28;3.00;99.90
11744;DHT22;5929;51.906;7.674;2022-12-05T07:25:55;2.90;99.90
11744;DHT22;5929;51.906;7.674;2022-12-05T07:28:23;2.90;99.90
11744;DHT22;5929;51.906;7.674;2022-12-05T07:30:58;2.90;99.90
11744;DHT22;5929;51.906;7.674;2022-12-05T07:33:28;2.90;99.90
11744;DHT22;5929;51.906;7.674;2022-12-05T07:36:00;2.90;99.90
11744;DHT22;5929;51.906;7.674;2022-12-05T07:38:27;2.90;99.90
11744;DHT22;5929;51.906;7.674;2022-12-05T07:40:54;2.90;99.90
11744;DHT22;5929;51.906;7.674;2022-12-05T07:43:22;2.90;99.90
11744;DHT22;5929;51.906;7.674;2022-12-05T07:45:49;2.90;99.90
11744;DHT22;5929;51.906;7.674;2022-12-05T07:48:16;3.00;99.90
11744;DHT22;5929;51.906;7.674;2022-12-05T07:50:43;3.00;99.90
11744;DHT22;5929;51.906;7.674;2022-12-05T07:53:11;3.00;99.90
11744;DHT22;5929;51.906;7.674;2022-12-05T07:55:39;2.90;99.90
11744;DHT22;5929;51.906;7.674;2022-12-05T07:58:06;2.90;99.90
11744;DHT22;5929;51.906;7.674;2022-12-05T08:00:32;2.90;99.90
11744;DHT22;5929;51.906;7.674;2022-12-05T08:03:00;2.90;99.90
11744;DHT22;5929;51.906;7.674;2022-12-05T08:05:28;2.80;99.90
11744;DHT22;5929;51.906;7.674;2022-12-05T08:07:55;2.90;99.90
11744;DHT22;5929;51.906;7.674;2022-12-05T08:10:23;2.90;99.90
11744;DHT22;5929;51.906;7.674;2022-12-05T08:12:50;3.00;99.90
11744;DHT22;5929;51.906;7.674;2022-12-05T08:15:17;3.00;99.90
11744;DHT22;5929;51.906;7.674;2022-12-05T08:17:46;2.90;99.90
11744;DHT22;5929;51.906;7.674;2022-12-05T08:20:14;2.90;99.90
11744;DHT22;5929;51.906;7.674;2022-12-05T08:22:40;2.90;99.90
11744;DHT22;5929;51.906;7.674;2022-12-05T08:25:08;2.80;99.90
11744;DHT22;5929;51.906;7.674;2022-12-05T08:27:36;2.80;99.90
11744;DHT22;5929;51.906;7.674;2022-12-05T08:30:04;2.80;99.90
11744;DHT22;5929;51.906;7.674;2022-12-05T08:32:31;2.90;99.90
11744;DHT22;5929;51.906;7.674;2022-12-05T08:34:58;3.00;99.90
11744;DHT22;5929;51.906;7.674;2022-12-05T08:37:25;2.90;99.90
11744;DHT22;5929;51.906;7.674;2022-12-05T08:39:53;2.90;99.90
11744;DHT22;5929;51.906;7.674;2022-12-05T08:42:20;2.90;99.90
11744;DHT22;5929;51.906;7.674;2022-12-05T08:44:48;2.80;99.90
11744;DHT22;5929;51.906;7.674;2022-12-05T08:47:15;2.90;99.90
11744;DHT22;5929;51.906;7.674;2022-12-05T08:49:42;3.00;99.90
11744;DHT22;5929;51.906;7.674;2022-12-05T08:52:09;3.00;99.90
11744;DHT22;5929;51.906;7.674;2022-12-05T08:54:36;3.00;99.90
11744;DHT22;5929;51.906;7.674;2022-12-05T08:57:03;2.90;99.90
11744;DHT22;5929;51.906;7.674;2022-12-05T08:59:30;2.90;99.90
11744;DHT22;5929;51.906;7.674;2022-12-05T09:01:58;2.90;99.90
11744;DHT22;5929;51.906;7.674;2022-12-05T09:04:27;2.90;99.90
11744;DHT22;5929;51.906;7.674;2022-12-05T09:06:54;2.90;99.90
11744;DHT22;5929;51.906;7.674;2022-12-05T09:09:21;2.80;99.90
11744;DHT22;5929;51.906;7.674;2022-12-05T09:11:48;2.90;99.90
11744;DHT22;5929;51.906;7.674;2022-12-05T09:14:16;2.80;99.90
11744;DHT22;5929;51.906;7.674;2022-12-05T09:16:44;2.90;99.90
11744;DHT22;5929;51.906;7.674;2022-12-05T09:19:14;2.90;99.90
11744;DHT22;5929;51.906;7.674;2022-12-05T09:21:42;2.80;99.90
11744;DHT22;5929;51.906;7.674;2022-12-05T09:24:12;2.80;99.90
11744;DHT22;5929;51.906;7.674;2022-12-05T09:26:39;2.80;99.90
11744;DHT22;5929;51.906;7.674;2022-12-05T09:29:07;2.80;99.90
11744;DHT22;5929;51.906;7.674;2022-12-05T09:31:33;2.80;99.90
11744;DHT22;5929;51.906;7.674;2022-12-05T09:34:01;2.80;99.90
11744;DHT22;5929;51.906;7.674;2022-12-05T09:36:30;2.70;99.90
11744;DHT22;5929;51.906;7.674;2022-12-05T09:39:00;2.70;99.90
11744;DHT22;5929;51.906;7.674;2022-12-05T09:41:43;2.70;99.90
11744;DHT22;5929;51.906;7.674;2022-12-05T09:44:40;2.70;99.90
11744;DHT22;5929;51.906;7.674;2022-12-05T09:47:15;2.70;99.90
11744;DHT22;5929;51.906;7.674;2022-12-05T09:49:47;2.60;99.90
11744;DHT22;5929;51.906;7.674;2022-12-05T09:52:23;2.60;99.90
11744;DHT22;5929;51.906;7.674;2022-12-05T09:54:51;2.60;99.90
11744;DHT22;5929;51.906;7.674;2022-12-05T09:57:23;2.50;99.90
11744;DHT22;5929;51.906;7.674;2022-12-05T09:59:50;2.40;99.90
11744;DHT22;5929;51.906;7.674;2022-12-05T10:02:25;2.40;99.90
11744;DHT22;5929;51.906;7.674;2022-12-05T10:04:58;2.40;99.90
11744;DHT22;5929;51.906;7.674;2022-12-05T10:07:36;2.40;99.90
11744;DHT22;5929;51.906;7.674;2022-12-05T10:10:27;2.40;99.90
11744;DHT22;5929;51.906;7.674;2022-12-05T10:13:11;2.50;99.90
11744;DHT22;5929;51.906;7.674;2022-12-05T10:15:41;2.40;99.90
11744;DHT22;5929;51.906;7.674;2022-12-05T10:18:14;2.30;99.90
11744;DHT22;5929;51.906;7.674;2022-12-05T10:20:47;2.30;99.90
11744;DHT22;5929;51.906;7.674;2022-12-05T10:23:20;2.40;99.90
11744;DHT22;5929;51.906;7.674;2022-12-05T10:25:55;2.50;99.90
11744;DHT22;5929;51.906;7.674;2022-12-05T10:28:30;2.50;99.90
11744;DHT22;5929;51.906;7.674;2022-12-05T10:31:01;2.40;99.90
11744;DHT22;5929;51.906;7.674;2022-12-05T10:33:37;2.30;99.90
11744;DHT22;5929;51.906;7.674;2022-12-05T10:36:12;2.40;99.90
11744;DHT22;5929;51.906;7.674;2022-12-05T10:38:42;2.40;99.90
11744;DHT22;5929;51.906;7.674;2022-12-05T10:41:12;2.40;99.90
11744;DHT22;5929;51.906;7.674;2022-12-05T10:43:41;2.30;99.90
11744;DHT22;5929;51.906;7.674;2022-12-05T10:46:10;2.30;99.90
11744;DHT22;5929;51.906;7.674;2022-12-05T10:48:39;2.30;99.90
11744;DHT22;5929;51.906;7.674;2022-12-05T10:51:08;2.20;99.90
11744;DHT22;5929;51.906;7.674;2022-12-05T10:53:41;2.20;99.90
11744;DHT22;5929;51.906;7.674;2022-12-05T10:56:36;2.30;99.90
11744;DHT22;5929;51.906;7.674;2022-12-05T10:59:04;2.30;99.90
11744;DHT22;5929;51.906;7.674;2022-12-05T11:01:31;2.30;99.90
11744;DHT22;5929;51.906;7.674;2022-12-05T11:03:59;2.30;99.90
11744;DHT22;5929;51.906;7.674;2022-12-05T11:06:29;2.30;99.90
11744;DHT22;5929;51.906;7.674;2022-12-05T11:09:02;2.30;99.90
11744;DHT22;5929;51.906;7.674;2022-12-05T11:11:30;2.30;99.90
11744;DHT22;5929;51.906;7.674;2022-12-05T11:14:00;2.30;99.90
11744;DHT22;5929;51.906;7.674;2022-12-05T11:16:29;2.20;99.90
11744;DHT22;5929;51.906;7.674;2022-12-05T11:19:17;2.10;99.90
11744;DHT22;5929;51.906;7.674;2022-12-05T11:21:49;2.10;99.90
11744;DHT22;5929;51.906;7.674;2022-12-05T11:24:23;2.10;99.90
11744;DHT22;5929;51.906;7.674;2022-12-05T11:26:51;2.00;99.90
11744;DHT22;5929;51.906;7.674;2022-12-05T11:29:30;1.90;99.90
11744;DHT22;5929;51.906;7.674;2022-12-05T11:31:58;1.90;99.90
11744;DHT22;5929;51.906;7.674;2022-12-05T11:34:28;1.90;99.90
11744;DHT22;5929;51.906;7.674;2022-12-05T11:36:58;1.90;99.90
11744;DHT22;5929;51.906;7.674;2022-12-05T11:39:28;1.90;99.90
11744;DHT22;5929;51.906;7.674;2022-12-05T11:42:24;1.80;99.90
11744;DHT22;5929;51.906;7.674;2022-12-05T11:45:11;1.90;99.90
11744;DHT22;5929;51.906;7.674;2022-12-05T11:47:59;1.80;99.90
11744;DHT22;5929;51.906;7.674;2022-12-05T11:50:36;1.80;99.90
11744;DHT22;5929;51.906;7.674;2022-12-05T11:53:25;1.80;99.90
11744;DHT22;5929;51.906;7.674;2022-12-05T11:56:03;1.90;99.90
11744;DHT22;5929;51.906;7.674;2022-12-05T11:58:55;1.80;99.90
11744;DHT22;5929;51.906;7.674;2022-12-05T12:01:36;1.80;99.90
11744;DHT22;5929;51.906;7.674;2022-12-05T12:04:23;1.80;99.90
11744;DHT22;5929;51.906;7.674;2022-12-05T12:07:05;1.70;99.90
11744;DHT22;5929;51.906;7.674;2022-12-05T12:09:43;1.80;99.90
11744;DHT22;5929;51.906;7.674;2022-12-05T12:12:22;1.70;99.90
11744;DHT22;5929;51.906;7.674;2022-12-05T12:14:58;1.70;99.90
11744;DHT22;5929;51.906;7.674;2022-12-05T12:17:36;1.70;99.90
11744;DHT22;5929;51.906;7.674;2022-12-05T12:23:14;1.70;99.90
11744;DHT22;5929;51.906;7.674;2022-12-05T12:25:51;1.70;99.90
11744;DHT22;5929;51.906;7.674;2022-12-05T12:28:36;1.70;99.90
11744;DHT22;5929;51.906;7.674;2022-12-05T12:31:34;1.70;99.90
11744;DHT22;5929;51.906;7.674;2022-12-05T12:34:20;1.70;99.90
11744;DHT22;5929;51.906;7.674;2022-12-05T12:36:56;1.70;99.90
11744;DHT22;5929;51.906;7.674;2022-12-05T12:39:34;1.70;99.90
11744;DHT22;5929;51.906;7.674;2022-12-05T12:42:14;1.70;99.90
11744;DHT22;5929;51.906;7.674;2022-12-05T12:44:57;1.70;99.90
11744;DHT22;5929;51.906;7.674;2022-12-05T12:47:33;1.70;99.90
11744;DHT22;5929;51.906;7.674;2022-12-05T12:50:09;1.70;99.90
11744;DHT22;5929;51.906;7.674;2022-12-05T12:52:49;1.70;99.90
11744;DHT22;5929;51.906;7.674;2022-12-05T12:55:23;1.80;99.90
11744;DHT22;5929;51.906;7.674;2022-12-05T12:58:02;1.80;99.90
11744;DHT22;5929;51.906;7.674;2022-12-05T13:00:44;1.70;99.90
11744;DHT22;5929;51.906;7.674;2022-12-05T13:03:18;1.70;99.90
11744;DHT22;5929;51.906;7.674;2022-12-05T13:05:50;1.70;99.90
11744;DHT22;5929;51.906;7.674;2022-12-05T13:08:22;1.70;99.90
11744;DHT22;5929;51.906;7.674;2022-12-05T13:10:53;1.70;99.90
11744;DHT22;5929;51.906;7.674;2022-12-05T13:13:23;1.70;99.90
11744;DHT22;5929;51.906;7.674;2022-12-05T13:15:54;1.70;99.90
11744;DHT22;5929;51.906;7.674;2022-12-05T13:18:24;1.70;99.90
11744;DHT22;5929;51.906;7.674;2022-12-05T13:20:54;1.60;99.90
11744;DHT22;5929;51.906;7.674;2022-12-05T13:23:23;1.70;99.90
11744;DHT22;5929;51.906;7.674;2022-12-05T13:25:52;1.70;99.90
11744;DHT22;5929;51.906;7.674;2022-12-05T13:28:25;1.60;99.90
11744;DHT22;5929;51.906;7.674;2022-12-05T13:30:55;1.70;99.90
11744;DHT22;5929;51.906;7.674;2022-12-05T13:33:31;1.60;99.90
11744;DHT22;5929;51.906;7.674;2022-12-05T13:36:05;1.60;99.90
11744;DHT22;5929;51.906;7.674;2022-12-05T13:38:59;1.60;99.90
11744;DHT22;5929;51.906;7.674;2022-12-05T13:41:46;1.60;99.90
11744;DHT22;5929;51.906;7.674;2022-12-05T13:44:35;1.60;99.90
11744;DHT22;5929;51.906;7.674;2022-12-05T13:47:06;1.70;99.90
11744;DHT22;5929;51.906;7.674;2022-12-05T13:49:40;1.60;99.90
11744;DHT22;5929;51.906;7.674;2022-12-05T13:52:12;1.60;99.90
11744;DHT22;5929;51.906;7.674;2022-12-05T13:54:42;1.60;99.90
11744;DHT22;5929;51.906;7.674;2022-12-05T14:00:28;1.60;99.90
11744;DHT22;5929;51.906;7.674;2022-12-05T14:03:02;1.60;99.90
11744;DHT22;5929;51.906;7.674;2022-12-05T14:08:51;1.60;99.90
11744;DHT22;5929;51.906;7.674;2022-12-05T14:11:18;1.60;99.90
11744;DHT22;5929;51.906;7.674;2022-12-05T14:13:45;1.60;99.90
11744;DHT22;5929;51.906;7.674;2022-12-05T14:16:45;1.60;99.90
11744;DHT22;5929;51.906;7.674;2022-12-05T14:25:47;1.70;99.90
11744;DHT22;5929;51.906;7.674;2022-12-05T14:28:29;1.70;99.90
11744;DHT22;5929;51.906;7.674;2022-12-05T14:31:12;1.70;99.90
11744;DHT22;5929;51.906;7.674;2022-12-05T14:33:41;1.70;99.90
11744;DHT22;5929;51.906;7.674;2022-12-05T14:36:15;1.70;99.90
11744;DHT22;5929;51.906;7.674;2022-12-05T14:38:43;1.60;99.90
11744;DHT22;5929;51.906;7.674;2022-12-05T14:41:14;1.60;99.90
11744;DHT22;5929;51.906;7.674;2022-12-05T14:43:42;1.60;99.90
11744;DHT22;5929;51.906;7.674;2022-12-05T14:46:18;1.60;99.90
11744;DHT22;5929;51.906;7.674;2022-12-05T14:48:48;1.60;99.90
11744;DHT22;5929;51.906;7.674;2022-12-05T14:51:43;1.60;99.90
11744;DHT22;5929;51.906;7.674;2022-12-05T14:54:12;1.60;99.90
11744;DHT22;5929;51.906;7.674;2022-12-05T14:56:43;1.60;99.90
11744;DHT22;5929;51.906;7.674;2022-12-05T14:59:21;1.60;99.90
11744;DHT22;5929;51.906;7.674;2022-12-05T15:01:54;1.60;99.90
11744;DHT22;5929;51.906;7.674;2022-12-05T15:04:25;1.60;99.90
11744;DHT22;5929;51.906;7.674;2022-12-05T15:06:59;1.60;99.90
11744;DHT22;5929;51.906;7.674;2022-12-05T15:09:41;1.60;99.90
11744;DHT22;5929;51.906;7.674;2022-12-05T15:12:14;1.70;99.90
11744;DHT22;5929;51.906;7.674;2022-12-05T15:14:51;1.70;99.90
11744;DHT22;5929;51.906;7.674;2022-12-05T15:17:23;1.70;99.90
11744;DHT22;5929;51.906;7.674;2022-12-05T15:19:55;1.80;99.90
11744;DHT22;5929;51.906;7.674;2022-12-05T15:22:25;1.80;99.90
11744;DHT22;5929;51.906;7.674;2022-12-05T15:24:53;1.70;99.90
11744;DHT22;5929;51.906;7.674;2022-12-05T15:27:21;1.80;99.90
11744;DHT22;5929;51.906;7.674;2022-12-05T15:29:52;1.80;99.90
11744;DHT22;5929;51.906;7.674;2022-12-05T15:32:24;1.80;99.90
11744;DHT22;5929;51.906;7.674;2022-12-05T15:34:56;1.80;99.90
11744;DHT22;5929;51.906;7.674;2022-12-05T15:37:30;1.70;99.90
11744;DHT22;5929;51.906;7.674;2022-12-05T15:40:00;1.70;99.90
11744;DHT22;5929;51.906;7.674;2022-12-05T15:42:31;1.80;99.90
11744;DHT22;5929;51.906;7.674;2022-12-05T15:45:20;1.70;99.90
11744;DHT22;5929;51.906;7.674;2022-12-05T15:47:49;1.80;99.90
11744;DHT22;5929;51.906;7.674;2022-12-05T15:50:20;1.80;99.90
11744;DHT22;5929;51.906;7.674;2022-12-05T15:52:51;1.70;99.90
11744;DHT22;5929;51.906;7.674;2022-12-05T15:55:22;1.70;99.90
11744;DHT22;5929;51.906;7.674;2022-12-05T15:57:54;1.70;99.90
11744;DHT22;5929;51.906;7.674;2022-12-05T16:00:24;1.70;99.90
11744;DHT22;5929;51.906;7.674;2022-12-05T16:02:55;1.70;99.90
11744;DHT22;5929;51.906;7.674;2022-12-05T16:05:29;1.70;99.90
11744;DHT22;5929;51.906;7.674;2022-12-05T16:07:57;1.80;99.90
11744;DHT22;5929;51.906;7.674;2022-12-05T16:10:24;1.70;99.90
11744;DHT22;5929;51.906;7.674;2022-12-05T16:12:54;1.70;99.90
11744;DHT22;5929;51.906;7.674;2022-12-05T16:15:23;1.60;99.90
11744;DHT22;5929;51.906;7.674;2022-12-05T16:17:53;1.60;99.90
11744;DHT22;5929;51.906;7.674;2022-12-05T16:20:30;1.60;99.90
11744;DHT22;5929;51.906;7.674;2022-12-05T16:23:00;1.60;99.90
11744;DHT22;5929;51.906;7.674;2022-12-05T16:25:30;1.60;99.90
11744;DHT22;5929;51.906;7.674;2022-12-05T16:28:14;1.60;99.90
11744;DHT22;5929;51.906;7.674;2022-12-05T16:30:52;1.60;99.90
11744;DHT22;5929;51.906;7.674;2022-12-05T16:33:20;1.60;99.90
11744;DHT22;5929;51.906;7.674;2022-12-05T16:35:47;1.50;99.90
11744;DHT22;5929;51.906;7.674;2022-12-05T16:38:18;1.60;99.90
11744;DHT22;5929;51.906;7.674;2022-12-05T16:40:56;1.60;99.90
11744;DHT22;5929;51.906;7.674;2022-12-05T16:43:40;1.50;99.90
11744;DHT22;5929;51.906;7.674;2022-12-05T16:46:42;1.50;99.90
11744;DHT22;5929;51.906;7.674;2022-12-05T16:49:18;1.60;99.90
11744;DHT22;5929;51.906;7.674;2022-12-05T16:51:54;1.60;99.90